createdAt,value
2023-01-23T00:02:39.841Z,2.20
2023-01-23T00:06:50.090Z,2.30
2023-01-23T00:10:58.899Z,2.30
2023-01-23T00:15:08.513Z,2.40
2023-01-23T00:19:36.558Z,2.30
2023-01-23T00:24:04.534Z,2.20
2023-01-23T00:28:16.345Z,2.30
2023-01-23T00:32:25.183Z,2.30
2023-01-23T00:36:36.492Z,2.30
2023-01-23T00:40:45.101Z,2.30
2023-01-23T00:44:53.726Z,2.30
2023-01-23T00:49:02.567Z,2.40
2023-01-23T00:53:30.551Z,2.30
2023-01-23T00:57:39.172Z,2.30
2023-01-23T01:01:47.855Z,2.30
2023-01-23T01:05:56.626Z,2.30
2023-01-23T01:10:05.556Z,2.40
2023-01-23T01:14:15.651Z,2.30
2023-01-23T01:18:24.562Z,2.30
2023-01-23T01:22:34.713Z,2.30
2023-01-23T01:26:43.362Z,2.30
2023-01-23T01:30:51.936Z,2.40
2023-01-23T01:35:00.722Z,2.40
2023-01-23T01:39:09.352Z,2.40
2023-01-23T01:43:23.719Z,2.40
2023-01-23T01:47:32.456Z,2.40
2023-01-23T01:51:56.860Z,2.40
2023-01-23T01:56:06.509Z,2.40
2023-01-23T02:00:18.198Z,2.40
2023-01-23T02:04:27.132Z,2.40
2023-01-23T02:08:38.830Z,2.50
2023-01-23T02:13:23.838Z,2.50
2023-01-23T02:17:33.471Z,2.50
2023-01-23T02:21:44.548Z,2.50
2023-01-23T02:25:56.148Z,2.50
2023-01-23T02:30:06.965Z,2.50
2023-01-23T02:34:17.582Z,2.50
2023-01-23T02:38:29.185Z,2.50
2023-01-23T02:42:40.800Z,2.50
2023-01-23T02:46:49.435Z,2.50
2023-01-23T02:50:58.106Z,2.50
2023-01-23T02:55:07.067Z,2.60
2023-01-23T02:59:33.245Z,2.50
2023-01-23T03:03:44.620Z,2.60
2023-01-23T03:07:53.222Z,2.60
2023-01-23T03:12:01.816Z,2.60
2023-01-23T03:16:10.468Z,2.60
2023-01-23T03:20:22.827Z,2.60
2023-01-23T03:24:31.458Z,2.50
2023-01-23T03:33:25.715Z,2.50
2023-01-23T03:37:53.766Z,2.40
2023-01-23T03:42:02.394Z,2.50
2023-01-23T03:46:11.194Z,2.50
2023-01-23T03:50:20.250Z,2.50
2023-01-23T03:54:29.407Z,2.50
2023-01-23T03:58:37.943Z,2.50
2023-01-23T04:02:46.577Z,2.50
2023-01-23T04:06:55.189Z,2.50
2023-01-23T04:11:08.844Z,2.50
2023-01-23T04:15:18.191Z,2.50
2023-01-23T04:19:26.812Z,2.50
2023-01-23T04:23:35.557Z,2.50
2023-01-23T04:27:44.173Z,2.50
2023-01-23T04:31:52.833Z,2.50
2023-01-23T04:36:04.094Z,2.50
2023-01-23T04:40:34.018Z,2.50
2023-01-23T04:44:42.652Z,2.50
2023-01-23T04:48:51.180Z,2.50
2023-01-23T04:53:00.012Z,2.50
2023-01-23T04:57:08.564Z,2.50
2023-01-23T05:01:17.159Z,2.50
2023-01-23T05:05:38.426Z,2.60
2023-01-23T05:09:47.013Z,2.50
2023-01-23T05:13:55.541Z,2.60
2023-01-23T05:18:04.727Z,2.60
2023-01-23T05:22:13.446Z,2.60
2023-01-23T05:26:22.098Z,2.60
2023-01-23T05:30:30.803Z,2.60
2023-01-23T05:34:39.797Z,2.60
2023-01-23T05:38:48.436Z,2.60
2023-01-23T05:42:57.044Z,2.70
2023-01-23T05:47:05.611Z,2.60
2023-01-23T05:51:14.230Z,2.60
2023-01-23T05:55:22.797Z,2.60
2023-01-23T05:59:31.890Z,2.60
2023-01-23T06:03:40.417Z,2.60
2023-01-23T06:07:49.045Z,2.60
2023-01-23T06:11:57.679Z,2.60
2023-01-23T06:16:09.027Z,2.60
2023-01-23T06:20:17.459Z,2.60
2023-01-23T06:24:26.527Z,2.50
2023-01-23T06:28:54.512Z,2.60
2023-01-23T06:33:03.145Z,2.60
2023-01-23T06:37:11.834Z,2.60
2023-01-23T06:41:20.417Z,2.60
2023-01-23T06:45:28.952Z,2.60
2023-01-23T06:49:37.692Z,2.70
2023-01-23T06:53:46.262Z,2.70
2023-01-23T06:57:55.010Z,2.70
2023-01-23T07:02:03.581Z,2.70
2023-01-23T07:06:24.880Z,2.70
2023-01-23T07:10:33.643Z,2.70
2023-01-23T07:14:42.177Z,2.70
2023-01-23T07:18:50.869Z,2.70
2023-01-23T07:22:59.689Z,2.70
2023-01-23T07:27:08.314Z,2.80
2023-01-23T07:31:18.709Z,2.80
2023-01-23T07:35:27.627Z,2.70
2023-01-23T07:39:36.246Z,2.80
2023-01-23T07:43:44.776Z,2.80
2023-01-23T07:47:53.402Z,2.80
2023-01-23T07:52:02.033Z,2.80
2023-01-23T07:56:10.663Z,2.80
2023-01-23T08:00:21.182Z,2.80
2023-01-23T08:04:30.338Z,2.80
2023-01-23T08:08:39.211Z,2.80
2023-01-23T08:12:47.834Z,2.80
2023-01-23T08:17:15.731Z,2.80
2023-01-23T08:21:25.072Z,2.80
2023-01-23T08:25:33.740Z,2.90
2023-01-23T08:29:42.516Z,2.90
2023-01-23T08:33:51.148Z,2.90
2023-01-23T08:38:00.288Z,3.10
2023-01-23T08:42:08.842Z,3.10
2023-01-23T08:46:17.566Z,3.10
2023-01-23T08:50:26.172Z,3.10
2023-01-23T08:54:35.414Z,3.10
2023-01-23T08:58:44.382Z,3.10
2023-01-23T09:02:53.195Z,3.10
2023-01-23T09:07:01.828Z,3.20
2023-01-23T09:11:12.158Z,3.20
2023-01-23T09:15:21.282Z,3.20
2023-01-23T09:19:32.536Z,3.20
2023-01-23T09:23:42.198Z,3.20
2023-01-23T09:27:50.998Z,3.20
2023-01-23T09:31:59.729Z,3.20
2023-01-23T09:36:09.381Z,3.20
2023-01-23T09:40:20.521Z,3.30
2023-01-23T09:44:53.261Z,3.30
2023-01-23T09:49:08.118Z,3.30
2023-01-23T09:53:19.839Z,3.30
2023-01-23T09:57:37.683Z,3.30
2023-01-23T10:01:46.310Z,3.30
2023-01-23T10:06:00.847Z,3.30
2023-01-23T10:10:24.094Z,3.30
2023-01-23T10:14:53.743Z,3.30
2023-01-23T10:19:11.515Z,3.30
2023-01-23T10:23:44.076Z,3.40
2023-01-23T10:27:54.628Z,3.30
2023-01-23T10:32:06.225Z,3.40
2023-01-23T10:36:24.371Z,3.40
2023-01-23T10:40:51.494Z,3.40
2023-01-23T10:45:00.148Z,3.50
2023-01-23T10:49:08.750Z,3.50
2023-01-23T10:53:36.728Z,3.60
2023-01-23T10:58:06.196Z,3.60
2023-01-23T11:02:17.992Z,3.60
2023-01-23T11:06:26.977Z,3.60
2023-01-23T11:10:36.825Z,3.60
2023-01-23T11:14:45.782Z,3.70
2023-01-23T11:18:57.785Z,3.70
2023-01-23T11:23:19.492Z,3.70
2023-01-23T11:27:30.992Z,3.70
2023-01-23T11:31:41.247Z,3.60
2023-01-23T11:36:02.309Z,3.70
2023-01-23T11:40:16.779Z,3.70
2023-01-23T11:44:28.241Z,3.70
2023-01-23T11:48:48.182Z,3.70
2023-01-23T11:52:59.859Z,3.70
2023-01-23T11:57:29.740Z,3.70
2023-01-23T12:01:43.786Z,3.80
2023-01-23T12:06:17.688Z,3.80
2023-01-23T12:10:19.429Z,3.80
2023-01-23T12:14:36.867Z,3.80
2023-01-23T12:19:09.302Z,3.80
2023-01-23T12:23:26.589Z,3.80
2023-01-23T12:27:45.042Z,3.80
2023-01-23T12:31:56.756Z,3.80
2023-01-23T12:36:59.565Z,3.80
2023-01-23T12:41:29.816Z,3.80
2023-01-23T12:45:41.579Z,3.80
2023-01-23T12:49:59.054Z,3.90
2023-01-23T12:54:10.714Z,3.90
2023-01-23T12:58:20.676Z,3.90
2023-01-23T13:02:41.391Z,4.00
2023-01-23T13:07:04.682Z,4.00
2023-01-23T13:11:44.836Z,4.00
2023-01-23T13:16:13.756Z,4.00
2023-01-23T13:20:47.006Z,4.00
2023-01-23T13:25:12.542Z,4.00
2023-01-23T13:29:45.084Z,4.00
2023-01-23T13:34:03.557Z,4.00
2023-01-23T13:38:25.552Z,4.00
2023-01-23T13:42:35.920Z,4.00
2023-01-23T13:46:58.990Z,4.10
2023-01-23T13:51:26.717Z,4.10
2023-01-23T13:55:56.137Z,4.10
2023-01-23T14:00:05.174Z,4.10
2023-01-23T14:04:34.413Z,4.10
2023-01-23T14:08:51.989Z,4.10
2023-01-23T14:13:06.350Z,4.10
2023-01-23T14:17:15.368Z,4.10
2023-01-23T14:21:44.901Z,4.10
2023-01-23T14:26:17.139Z,4.10
2023-01-23T14:30:28.510Z,4.10
2023-01-23T14:34:40.214Z,4.10
2023-01-23T14:38:50.525Z,4.00
2023-01-23T14:43:05.078Z,4.00
2023-01-23T14:47:22.743Z,4.00
2023-01-23T14:51:31.397Z,4.00
2023-01-23T14:55:42.428Z,4.00
2023-01-23T14:59:53.542Z,4.00
2023-01-23T15:04:10.673Z,4.00
2023-01-23T15:08:24.652Z,4.00
2023-01-23T15:12:56.903Z,4.00
2023-01-23T15:17:08.944Z,3.90
2023-01-23T15:21:20.714Z,4.00
2023-01-23T15:25:32.628Z,4.00
2023-01-23T15:29:41.248Z,4.00
2023-01-23T15:34:02.265Z,3.90
2023-01-23T15:38:18.539Z,3.90
2023-01-23T15:42:30.405Z,3.80
2023-01-23T15:46:39.177Z,3.80
2023-01-23T15:50:47.921Z,3.80
2023-01-23T15:54:59.551Z,3.80
2023-01-23T15:59:11.174Z,3.80
2023-01-23T16:03:19.838Z,3.80
2023-01-23T16:07:34.736Z,3.80
2023-01-23T16:11:43.484Z,3.80
2023-01-23T16:15:52.730Z,3.80
2023-01-23T16:20:01.588Z,3.80
2023-01-23T16:24:22.013Z,3.80
2023-01-23T16:28:32.460Z,3.70
2023-01-23T16:32:41.227Z,3.80
2023-01-23T16:36:55.833Z,3.70
2023-01-23T16:41:04.572Z,3.70
2023-01-23T16:45:32.854Z,3.70
2023-01-23T16:49:57.019Z,3.70
2023-01-23T16:53:54.567Z,3.70
2023-01-23T16:58:04.908Z,3.70
2023-01-23T17:02:31.898Z,3.70
2023-01-23T17:06:42.401Z,3.80
2023-01-23T17:10:59.200Z,3.70
2023-01-23T17:15:08.513Z,3.70
2023-01-23T17:19:22.694Z,3.70
2023-01-23T17:23:31.375Z,3.70
2023-01-23T17:27:45.481Z,3.70
2023-01-23T17:31:50.654Z,3.70
2023-01-23T17:36:03.347Z,3.70
2023-01-23T17:40:14.497Z,3.70
2023-01-23T17:44:23.044Z,3.70
2023-01-23T17:48:34.416Z,3.70
2023-01-23T17:52:42.979Z,3.70
2023-01-23T17:56:51.558Z,3.70
2023-01-23T18:01:00.324Z,3.70
2023-01-23T18:05:12.027Z,3.80
2023-01-23T18:09:21.284Z,3.70
2023-01-23T18:13:32.929Z,3.70
2023-01-23T18:17:50.571Z,3.70
2023-01-23T18:21:59.416Z,3.70
2023-01-23T18:26:39.897Z,3.70
2023-01-23T18:30:54.190Z,3.70
2023-01-23T18:35:08.905Z,3.70
2023-01-23T18:39:32.696Z,3.70
2023-01-23T18:43:44.463Z,3.70
2023-01-23T18:47:53.605Z,3.70
2023-01-23T18:52:11.045Z,3.70
2023-01-23T18:56:42.242Z,3.70
2023-01-23T19:01:05.773Z,3.70
2023-01-23T19:05:17.365Z,3.70
2023-01-23T19:09:28.109Z,3.70
2023-01-23T19:13:45.698Z,3.60
2023-01-23T19:18:14.329Z,3.60
2023-01-23T19:22:25.107Z,3.60
2023-01-23T19:26:36.214Z,3.60
2023-01-23T19:30:45.217Z,3.60
2023-01-23T19:34:56.416Z,3.60
2023-01-23T19:39:06.702Z,3.60
2023-01-23T19:43:18.750Z,3.60
2023-01-23T19:47:27.391Z,3.60
2023-01-23T19:51:36.565Z,3.60
2023-01-23T19:55:45.208Z,3.60
2023-01-23T19:59:53.800Z,3.60
2023-01-23T20:04:03.405Z,3.60
2023-01-23T20:08:12.000Z,3.60
2023-01-23T20:12:20.635Z,3.60
2023-01-23T20:16:29.312Z,3.60
2023-01-23T20:21:00.521Z,3.60
2023-01-23T20:25:11.821Z,3.60
2023-01-23T20:29:20.435Z,3.60
2023-01-23T20:33:29.068Z,3.60
2023-01-23T20:37:37.793Z,3.70
2023-01-23T20:41:46.523Z,3.60
2023-01-23T20:45:55.180Z,3.60
2023-01-23T20:50:04.405Z,3.60
2023-01-23T20:54:12.979Z,3.60
2023-01-23T20:58:39.796Z,3.60
2023-01-23T21:02:48.416Z,3.60
2023-01-23T21:06:57.435Z,3.60
2023-01-23T21:11:07.733Z,3.60
2023-01-23T21:15:16.450Z,3.60
2023-01-23T21:19:25.044Z,3.60
2023-01-23T21:23:34.254Z,3.70
2023-01-23T21:27:42.831Z,3.70
2023-01-23T21:31:51.559Z,3.70
2023-01-23T21:36:01.785Z,3.60
2023-01-23T21:40:11.294Z,3.70
2023-01-23T21:44:19.862Z,3.70
2023-01-23T21:48:32.638Z,3.70
2023-01-23T21:52:41.165Z,3.70
2023-01-23T21:56:49.793Z,3.70
2023-01-23T22:01:18.553Z,3.70
2023-01-23T22:05:27.170Z,3.70
2023-01-23T22:09:35.786Z,3.60
2023-01-23T22:13:44.379Z,3.60
2023-01-23T22:17:53.219Z,3.60
2023-01-23T22:22:01.785Z,3.70
2023-01-23T22:26:11.925Z,3.70
2023-01-23T22:30:20.633Z,3.70
2023-01-23T22:34:29.275Z,3.60
2023-01-23T22:38:50.432Z,3.70
2023-01-23T22:42:59.017Z,3.70
2023-01-23T22:47:08.859Z,3.70
2023-01-23T22:51:20.882Z,3.70
2023-01-23T22:55:29.509Z,3.60
2023-01-23T22:59:38.032Z,3.60
2023-01-23T23:03:47.448Z,3.60
2023-01-23T23:07:56.008Z,3.60
2023-01-23T23:12:04.745Z,3.60
2023-01-23T23:16:19.099Z,3.60
2023-01-23T23:20:27.736Z,3.60
2023-01-23T23:24:36.362Z,3.50
2023-01-23T23:28:45.102Z,3.50
2023-01-23T23:32:53.681Z,3.50
2023-01-23T23:37:02.237Z,3.50
2023-01-23T23:41:13.534Z,3.50
2023-01-23T23:45:22.344Z,3.50
2023-01-23T23:49:31.100Z,3.50
2023-01-23T23:53:39.730Z,3.50
2023-01-23T23:57:48.466Z,3.50
